Saint Anthony, Indiana
Current Conditions -  °F | °C
As of 4:15 PM on Friday 24 Oct 2014 (Local Time) from KHNB Reporting Station
Scattered Clouds Scattered Clouds  
Wind Chill: 66°   Ceiling: Unl
Heat Index: 66°   Visibility: 10mi
Dew Point: 52°   Wind: 10mph
Humidity: 60%   Direction: 290°WNW
Pressure: 30.05"   Gusts: NA
Location:  38.31°N, 86.83°W
Report Text: KHNB 242115Z AUTO 29009KT 10SM SCT043 19/11 A3005 RMK AO1
Loading
Personal Weather Stations






























Interactive Weather Map
Tropical Storm Tracking
New forecast layout! Learn more

10-Day Weather Forecast

Advertisements
Track Severe Weather on mobile